sensor_id;sensor_type;location;lat;lon;timestamp;temperature;humidity
2603;DHT22;1311;47.966;7.958;2023-07-31T00:00:56;14.30;99.90
2603;DHT22;1311;47.966;7.958;2023-07-31T00:03:23;14.40;99.90
2603;DHT22;1311;47.966;7.958;2023-07-31T00:05:50;14.50;99.90
2603;DHT22;1311;47.966;7.958;2023-07-31T00:08:16;14.60;99.90
2603;DHT22;1311;47.966;7.958;2023-07-31T00:10:44;14.60;99.90
2603;DHT22;1311;47.966;7.958;2023-07-31T00:13:11;14.70;99.90
2603;DHT22;1311;47.966;7.958;2023-07-31T00:15:38;14.70;99.90
2603;DHT22;1311;47.966;7.958;2023-07-31T00:18:05;14.70;99.90
2603;DHT22;1311;47.966;7.958;2023-07-31T00:20:31;14.50;99.90
2603;DHT22;1311;47.966;7.958;2023-07-31T00:22:58;14.50;99.90
2603;DHT22;1311;47.966;7.958;2023-07-31T00:25:25;14.50;99.90
2603;DHT22;1311;47.966;7.958;2023-07-31T00:27:53;14.40;99.90
2603;DHT22;1311;47.966;7.958;2023-07-31T00:30:19;14.30;99.90
2603;DHT22;1311;47.966;7.958;2023-07-31T00:32:47;14.30;99.90
2603;DHT22;1311;47.966;7.958;2023-07-31T00:35:14;14.20;99.90
2603;DHT22;1311;47.966;7.958;2023-07-31T00:37:41;14.20;99.90
2603;DHT22;1311;47.966;7.958;2023-07-31T00:40:08;14.10;99.90
2603;DHT22;1311;47.966;7.958;2023-07-31T00:42:35;14.10;99.90
2603;DHT22;1311;47.966;7.958;2023-07-31T00:45:04;14.00;99.90
2603;DHT22;1311;47.966;7.958;2023-07-31T00:47:31;14.10;99.90
2603;DHT22;1311;47.966;7.958;2023-07-31T00:49:58;14.20;99.90
2603;DHT22;1311;47.966;7.958;2023-07-31T00:52:25;14.10;99.90
2603;DHT22;1311;47.966;7.958;2023-07-31T00:54:52;14.10;99.90
2603;DHT22;1311;47.966;7.958;2023-07-31T00:57:18;14.10;99.90
2603;DHT22;1311;47.966;7.958;2023-07-31T00:59:45;14.10;99.90
2603;DHT22;1311;47.966;7.958;2023-07-31T01:02:13;14.20;99.90
2603;DHT22;1311;47.966;7.958;2023-07-31T01:04:42;14.20;99.90
2603;DHT22;1311;47.966;7.958;2023-07-31T01:07:14;14.30;99.90
2603;DHT22;1311;47.966;7.958;2023-07-31T01:09:47;14.30;99.90
2603;DHT22;1311;47.966;7.958;2023-07-31T01:12:17;14.30;99.90
2603;DHT22;1311;47.966;7.958;2023-07-31T01:14:51;14.20;99.90
2603;DHT22;1311;47.966;7.958;2023-07-31T01:17:19;14.10;99.90
2603;DHT22;1311;47.966;7.958;2023-07-31T01:19:47;14.00;99.90
2603;DHT22;1311;47.966;7.958;2023-07-31T01:22:30;13.90;99.90
2603;DHT22;1311;47.966;7.958;2023-07-31T01:25:10;13.90;99.90
2603;DHT22;1311;47.966;7.958;2023-07-31T01:27:44;13.90;99.90
2603;DHT22;1311;47.966;7.958;2023-07-31T01:30:16;13.90;99.90
2603;DHT22;1311;47.966;7.958;2023-07-31T01:32:47;13.90;99.90
2603;DHT22;1311;47.966;7.958;2023-07-31T01:35:14;13.80;99.90
2603;DHT22;1311;47.966;7.958;2023-07-31T01:37:41;13.80;99.90
2603;DHT22;1311;47.966;7.958;2023-07-31T01:40:09;13.70;99.90
2603;DHT22;1311;47.966;7.958;2023-07-31T01:42:36;13.70;99.90
2603;DHT22;1311;47.966;7.958;2023-07-31T01:45:05;13.70;99.90
2603;DHT22;1311;47.966;7.958;2023-07-31T01:47:32;13.70;99.90
2603;DHT22;1311;47.966;7.958;2023-07-31T01:49:58;13.60;99.90
2603;DHT22;1311;47.966;7.958;2023-07-31T01:52:25;13.60;99.90
2603;DHT22;1311;47.966;7.958;2023-07-31T01:54:52;13.60;99.90
2603;DHT22;1311;47.966;7.958;2023-07-31T01:57:19;13.50;99.90
2603;DHT22;1311;47.966;7.958;2023-07-31T01:59:45;13.40;99.90
2603;DHT22;1311;47.966;7.958;2023-07-31T02:02:14;13.40;99.90
2603;DHT22;1311;47.966;7.958;2023-07-31T02:04:40;13.30;99.90
2603;DHT22;1311;47.966;7.958;2023-07-31T02:07:07;13.30;99.90
2603;DHT22;1311;47.966;7.958;2023-07-31T02:09:34;13.30;99.90
2603;DHT22;1311;47.966;7.958;2023-07-31T02:12:00;13.20;99.90
2603;DHT22;1311;47.966;7.958;2023-07-31T02:14:27;13.20;99.90
2603;DHT22;1311;47.966;7.958;2023-07-31T02:16:54;13.20;99.90
2603;DHT22;1311;47.966;7.958;2023-07-31T02:19:22;13.20;99.90
2603;DHT22;1311;47.966;7.958;2023-07-31T02:21:49;13.20;99.90
2603;DHT22;1311;47.966;7.958;2023-07-31T02:24:15;13.20;99.90
2603;DHT22;1311;47.966;7.958;2023-07-31T02:26:42;13.10;99.90
2603;DHT22;1311;47.966;7.958;2023-07-31T02:29:09;13.10;99.90
2603;DHT22;1311;47.966;7.958;2023-07-31T02:31:36;13.00;99.90
2603;DHT22;1311;47.966;7.958;2023-07-31T02:34:02;13.00;99.90
2603;DHT22;1311;47.966;7.958;2023-07-31T02:36:30;13.00;99.90
2603;DHT22;1311;47.966;7.958;2023-07-31T02:38:57;13.00;99.90
2603;DHT22;1311;47.966;7.958;2023-07-31T02:41:24;13.00;99.90
2603;DHT22;1311;47.966;7.958;2023-07-31T02:43:51;13.00;99.90
2603;DHT22;1311;47.966;7.958;2023-07-31T02:46:19;13.00;99.90
2603;DHT22;1311;47.966;7.958;2023-07-31T02:48:45;13.00;99.90
2603;DHT22;1311;47.966;7.958;2023-07-31T02:51:12;12.90;99.90
2603;DHT22;1311;47.966;7.958;2023-07-31T02:53:40;12.90;99.90
2603;DHT22;1311;47.966;7.958;2023-07-31T02:56:07;12.90;99.90
2603;DHT22;1311;47.966;7.958;2023-07-31T02:58:34;12.90;99.90
2603;DHT22;1311;47.966;7.958;2023-07-31T03:01:00;12.90;99.90
2603;DHT22;1311;47.966;7.958;2023-07-31T03:03:27;12.80;99.90
2603;DHT22;1311;47.966;7.958;2023-07-31T03:05:54;12.90;99.90
2603;DHT22;1311;47.966;7.958;2023-07-31T03:08:21;12.90;99.90
2603;DHT22;1311;47.966;7.958;2023-07-31T03:10:49;12.90;99.90
2603;DHT22;1311;47.966;7.958;2023-07-31T03:13:16;12.90;99.90
2603;DHT22;1311;47.966;7.958;2023-07-31T03:15:43;12.90;99.90
2603;DHT22;1311;47.966;7.958;2023-07-31T03:18:09;12.90;99.90
2603;DHT22;1311;47.966;7.958;2023-07-31T03:20:36;12.90;99.90
2603;DHT22;1311;47.966;7.958;2023-07-31T03:23:03;12.90;99.90
2603;DHT22;1311;47.966;7.958;2023-07-31T03:25:30;12.90;99.90
2603;DHT22;1311;47.966;7.958;2023-07-31T03:27:58;12.90;99.90
2603;DHT22;1311;47.966;7.958;2023-07-31T03:30:24;12.80;99.90
2603;DHT22;1311;47.966;7.958;2023-07-31T03:32:51;12.80;99.90
2603;DHT22;1311;47.966;7.958;2023-07-31T03:35:18;12.80;99.90
2603;DHT22;1311;47.966;7.958;2023-07-31T03:37:45;12.80;99.90
2603;DHT22;1311;47.966;7.958;2023-07-31T03:40:12;12.80;99.90
2603;DHT22;1311;47.966;7.958;2023-07-31T03:42:39;12.80;99.90
2603;DHT22;1311;47.966;7.958;2023-07-31T03:45:08;12.80;99.90
2603;DHT22;1311;47.966;7.958;2023-07-31T03:47:35;12.80;99.90
2603;DHT22;1311;47.966;7.958;2023-07-31T03:50:03;12.70;99.90
2603;DHT22;1311;47.966;7.958;2023-07-31T03:52:29;12.70;99.90
2603;DHT22;1311;47.966;7.958;2023-07-31T03:54:56;12.80;99.90
2603;DHT22;1311;47.966;7.958;2023-07-31T03:57:23;12.80;99.90
2603;DHT22;1311;47.966;7.958;2023-07-31T03:59:50;12.80;99.90
2603;DHT22;1311;47.966;7.958;2023-07-31T04:02:18;12.90;99.90
2603;DHT22;1311;47.966;7.958;2023-07-31T04:04:45;12.90;99.90
2603;DHT22;1311;47.966;7.958;2023-07-31T04:07:11;12.90;99.90
2603;DHT22;1311;47.966;7.958;2023-07-31T04:09:38;12.90;99.90
2603;DHT22;1311;47.966;7.958;2023-07-31T04:12:05;12.90;99.90
2603;DHT22;1311;47.966;7.958;2023-07-31T04:14:32;12.90;99.90
2603;DHT22;1311;47.966;7.958;2023-07-31T04:16:59;12.90;99.90
2603;DHT22;1311;47.966;7.958;2023-07-31T04:19:27;13.00;99.90
2603;DHT22;1311;47.966;7.958;2023-07-31T04:21:54;13.00;99.90
2603;DHT22;1311;47.966;7.958;2023-07-31T04:24:20;13.00;99.90
2603;DHT22;1311;47.966;7.958;2023-07-31T04:26:49;13.10;99.90
2603;DHT22;1311;47.966;7.958;2023-07-31T04:29:16;13.20;99.90
2603;DHT22;1311;47.966;7.958;2023-07-31T04:31:43;13.20;99.90
2603;DHT22;1311;47.966;7.958;2023-07-31T04:34:10;13.20;99.90
2603;DHT22;1311;47.966;7.958;2023-07-31T04:36:38;13.20;99.90
2603;DHT22;1311;47.966;7.958;2023-07-31T04:39:05;13.30;99.90
2603;DHT22;1311;47.966;7.958;2023-07-31T04:41:32;13.40;99.90
2603;DHT22;1311;47.966;7.958;2023-07-31T04:43:58;13.50;99.90
2603;DHT22;1311;47.966;7.958;2023-07-31T04:46:25;13.50;99.90
2603;DHT22;1311;47.966;7.958;2023-07-31T04:48:52;13.60;99.90
2603;DHT22;1311;47.966;7.958;2023-07-31T04:51:19;13.70;99.90
2603;DHT22;1311;47.966;7.958;2023-07-31T04:53:48;13.70;99.90
2603;DHT22;1311;47.966;7.958;2023-07-31T04:56:15;13.70;99.90
2603;DHT22;1311;47.966;7.958;2023-07-31T04:58:42;13.80;99.90
2603;DHT22;1311;47.966;7.958;2023-07-31T05:01:09;13.70;99.90
2603;DHT22;1311;47.966;7.958;2023-07-31T05:03:35;13.70;99.90
2603;DHT22;1311;47.966;7.958;2023-07-31T05:06:02;13.70;99.90
2603;DHT22;1311;47.966;7.958;2023-07-31T05:08:29;13.80;99.90
2603;DHT22;1311;47.966;7.958;2023-07-31T05:10:57;13.80;99.90
2603;DHT22;1311;47.966;7.958;2023-07-31T05:13:24;13.90;99.90
2603;DHT22;1311;47.966;7.958;2023-07-31T05:15:51;14.00;99.90
2603;DHT22;1311;47.966;7.958;2023-07-31T05:18:17;14.10;99.90
2603;DHT22;1311;47.966;7.958;2023-07-31T05:20:44;14.20;99.90
2603;DHT22;1311;47.966;7.958;2023-07-31T05:23:11;14.20;99.90
2603;DHT22;1311;47.966;7.958;2023-07-31T05:25:38;14.20;99.90
2603;DHT22;1311;47.966;7.958;2023-07-31T05:28:06;14.40;99.90
2603;DHT22;1311;47.966;7.958;2023-07-31T05:30:33;14.50;99.90
2603;DHT22;1311;47.966;7.958;2023-07-31T05:32:59;14.60;99.90
2603;DHT22;1311;47.966;7.958;2023-07-31T05:35:26;14.80;99.90
2603;DHT22;1311;47.966;7.958;2023-07-31T05:37:53;14.80;99.90
2603;DHT22;1311;47.966;7.958;2023-07-31T05:40:20;15.00;99.90
2603;DHT22;1311;47.966;7.958;2023-07-31T05:42:46;15.00;99.90
2603;DHT22;1311;47.966;7.958;2023-07-31T05:45:14;15.10;99.90
2603;DHT22;1311;47.966;7.958;2023-07-31T05:47:41;15.10;99.90
2603;DHT22;1311;47.966;7.958;2023-07-31T05:50:08;15.10;99.90
2603;DHT22;1311;47.966;7.958;2023-07-31T05:52:35;15.20;99.90
2603;DHT22;1311;47.966;7.958;2023-07-31T05:55:02;15.20;99.90
2603;DHT22;1311;47.966;7.958;2023-07-31T05:57:29;15.40;99.90
2603;DHT22;1311;47.966;7.958;2023-07-31T05:59:56;15.50;99.90
2603;DHT22;1311;47.966;7.958;2023-07-31T06:02:24;15.50;99.90
2603;DHT22;1311;47.966;7.958;2023-07-31T06:04:51;15.70;99.90
2603;DHT22;1311;47.966;7.958;2023-07-31T06:07:17;15.90;99.90
2603;DHT22;1311;47.966;7.958;2023-07-31T06:09:44;16.20;99.90
2603;DHT22;1311;47.966;7.958;2023-07-31T06:12:11;16.50;99.90
2603;DHT22;1311;47.966;7.958;2023-07-31T06:14:38;16.70;99.90
2603;DHT22;1311;47.966;7.958;2023-07-31T06:17:06;17.00;99.90
2603;DHT22;1311;47.966;7.958;2023-07-31T06:19:34;17.40;99.90
2603;DHT22;1311;47.966;7.958;2023-07-31T06:22:01;17.60;99.90
2603;DHT22;1311;47.966;7.958;2023-07-31T06:24:28;17.80;99.90
2603;DHT22;1311;47.966;7.958;2023-07-31T06:26:55;17.90;99.90
2603;DHT22;1311;47.966;7.958;2023-07-31T06:29:23;17.90;99.90
2603;DHT22;1311;47.966;7.958;2023-07-31T06:31:49;17.60;99.90
2603;DHT22;1311;47.966;7.958;2023-07-31T06:34:16;17.60;99.90
2603;DHT22;1311;47.966;7.958;2023-07-31T06:36:45;17.60;99.90
2603;DHT22;1311;47.966;7.958;2023-07-31T06:39:11;17.70;99.90
2603;DHT22;1311;47.966;7.958;2023-07-31T06:41:39;17.90;99.90
2603;DHT22;1311;47.966;7.958;2023-07-31T06:44:05;18.10;99.90
2603;DHT22;1311;47.966;7.958;2023-07-31T06:46:32;18.30;99.90
2603;DHT22;1311;47.966;7.958;2023-07-31T06:48:59;18.30;99.90
2603;DHT22;1311;47.966;7.958;2023-07-31T06:51:25;18.30;99.90
2603;DHT22;1311;47.966;7.958;2023-07-31T06:53:54;18.20;99.90
2603;DHT22;1311;47.966;7.958;2023-07-31T06:56:21;18.30;99.90
2603;DHT22;1311;47.966;7.958;2023-07-31T06:58:47;18.40;99.90
2603;DHT22;1311;47.966;7.958;2023-07-31T07:01:14;18.20;99.90
2603;DHT22;1311;47.966;7.958;2023-07-31T07:03:41;18.60;99.90
2603;DHT22;1311;47.966;7.958;2023-07-31T07:06:08;19.10;99.90
2603;DHT22;1311;47.966;7.958;2023-07-31T07:08:34;19.50;99.90
2603;DHT22;1311;47.966;7.958;2023-07-31T07:11:02;19.60;99.90
2603;DHT22;1311;47.966;7.958;2023-07-31T07:13:29;19.30;99.90
2603;DHT22;1311;47.966;7.958;2023-07-31T07:15:56;19.40;99.90
2603;DHT22;1311;47.966;7.958;2023-07-31T07:18:23;19.30;99.90
2603;DHT22;1311;47.966;7.958;2023-07-31T07:20:50;19.50;99.90
2603;DHT22;1311;47.966;7.958;2023-07-31T07:23:17;19.40;99.90
2603;DHT22;1311;47.966;7.958;2023-07-31T07:25:45;19.30;99.90
2603;DHT22;1311;47.966;7.958;2023-07-31T07:28:14;19.40;99.90
2603;DHT22;1311;47.966;7.958;2023-07-31T07:30:41;19.50;99.90
2603;DHT22;1311;47.966;7.958;2023-07-31T07:33:08;19.50;99.90
2603;DHT22;1311;47.966;7.958;2023-07-31T07:35:35;19.60;99.90
2603;DHT22;1311;47.966;7.958;2023-07-31T07:38:02;19.60;74.30
2603;DHT22;1311;47.966;7.958;2023-07-31T07:40:29;19.50;42.90
2603;DHT22;1311;47.966;7.958;2023-07-31T07:42:56;19.80;56.30
2603;DHT22;1311;47.966;7.958;2023-07-31T07:45:24;20.00;53.10
2603;DHT22;1311;47.966;7.958;2023-07-31T07:47:52;20.00;21.80
2603;DHT22;1311;47.966;7.958;2023-07-31T07:50:19;20.40;25.60
2603;DHT22;1311;47.966;7.958;2023-07-31T07:52:46;20.50;1.00
2603;DHT22;1311;47.966;7.958;2023-07-31T07:55:13;20.80;1.00
2603;DHT22;1311;47.966;7.958;2023-07-31T07:57:40;21.20;1.00
2603;DHT22;1311;47.966;7.958;2023-07-31T08:00:07;21.70;99.90
2603;DHT22;1311;47.966;7.958;2023-07-31T08:02:37;22.00;1.00
2603;DHT22;1311;47.966;7.958;2023-07-31T08:05:05;22.50;9.80
2603;DHT22;1311;47.966;7.958;2023-07-31T08:07:32;22.50;1.00
2603;DHT22;1311;47.966;7.958;2023-07-31T08:09:59;22.60;99.90
2603;DHT22;1311;47.966;7.958;2023-07-31T08:12:25;23.00;99.90
2603;DHT22;1311;47.966;7.958;2023-07-31T08:14:52;23.20;99.90
2603;DHT22;1311;47.966;7.958;2023-07-31T08:17:19;23.20;1.00
2603;DHT22;1311;47.966;7.958;2023-07-31T08:19:47;22.60;1.00
2603;DHT22;1311;47.966;7.958;2023-07-31T08:22:14;22.50;1.00
2603;DHT22;1311;47.966;7.958;2023-07-31T08:24:41;22.10;1.00
2603;DHT22;1311;47.966;7.958;2023-07-31T08:27:08;22.20;1.00
2603;DHT22;1311;47.966;7.958;2023-07-31T08:29:35;22.10;99.90
2603;DHT22;1311;47.966;7.958;2023-07-31T08:32:02;21.60;40.50
2603;DHT22;1311;47.966;7.958;2023-07-31T08:34:29;21.50;99.90
2603;DHT22;1311;47.966;7.958;2023-07-31T08:36:57;21.60;99.90
2603;DHT22;1311;47.966;7.958;2023-07-31T08:39:24;21.20;99.90
2603;DHT22;1311;47.966;7.958;2023-07-31T08:41:50;21.10;99.90
2603;DHT22;1311;47.966;7.958;2023-07-31T08:44:18;21.40;1.00
2603;DHT22;1311;47.966;7.958;2023-07-31T08:46:46;21.40;99.90
2603;DHT22;1311;47.966;7.958;2023-07-31T08:49:14;21.10;99.90
2603;DHT22;1311;47.966;7.958;2023-07-31T08:51:42;21.00;99.90
2603;DHT22;1311;47.966;7.958;2023-07-31T08:54:11;20.90;1.00
2603;DHT22;1311;47.966;7.958;2023-07-31T08:56:39;20.90;1.00
2603;DHT22;1311;47.966;7.958;2023-07-31T08:59:07;21.00;1.00
2603;DHT22;1311;47.966;7.958;2023-07-31T09:01:37;21.10;1.00
2603;DHT22;1311;47.966;7.958;2023-07-31T09:04:09;21.20;99.90
2603;DHT22;1311;47.966;7.958;2023-07-31T09:06:37;21.30;1.00
2603;DHT22;1311;47.966;7.958;2023-07-31T09:09:05;21.70;1.00
2603;DHT22;1311;47.966;7.958;2023-07-31T09:11:33;21.90;99.90
2603;DHT22;1311;47.966;7.958;2023-07-31T09:14:00;21.80;99.90
2603;DHT22;1311;47.966;7.958;2023-07-31T09:16:34;21.90;99.90
2603;DHT22;1311;47.966;7.958;2023-07-31T09:19:01;22.60;1.00
2603;DHT22;1311;47.966;7.958;2023-07-31T09:21:28;23.00;99.90
2603;DHT22;1311;47.966;7.958;2023-07-31T09:23:55;22.90;1.00
2603;DHT22;1311;47.966;7.958;2023-07-31T09:26:30;23.30;99.90
2603;DHT22;1311;47.966;7.958;2023-07-31T09:28:58;23.50;99.90
2603;DHT22;1311;47.966;7.958;2023-07-31T09:31:32;22.90;99.90
2603;DHT22;1311;47.966;7.958;2023-07-31T09:34:00;22.50;99.90
2603;DHT22;1311;47.966;7.958;2023-07-31T09:36:29;22.40;99.90
2603;DHT22;1311;47.966;7.958;2023-07-31T09:39:02;22.50;99.90
2603;DHT22;1311;47.966;7.958;2023-07-31T09:41:29;22.50;99.90
2603;DHT22;1311;47.966;7.958;2023-07-31T09:43:57;22.40;99.90
2603;DHT22;1311;47.966;7.958;2023-07-31T09:46:27;22.30;99.90
2603;DHT22;1311;47.966;7.958;2023-07-31T09:49:06;22.50;99.90
2603;DHT22;1311;47.966;7.958;2023-07-31T09:51:35;22.80;99.90
2603;DHT22;1311;47.966;7.958;2023-07-31T09:54:10;22.70;99.90
2603;DHT22;1311;47.966;7.958;2023-07-31T09:56:41;22.60;99.90
2603;DHT22;1311;47.966;7.958;2023-07-31T09:59:12;22.50;99.90
2603;DHT22;1311;47.966;7.958;2023-07-31T10:01:40;22.50;99.90
2603;DHT22;1311;47.966;7.958;2023-07-31T10:04:08;22.50;99.90
2603;DHT22;1311;47.966;7.958;2023-07-31T10:06:37;22.60;99.90
2603;DHT22;1311;47.966;7.958;2023-07-31T10:09:06;22.60;70.90
2603;DHT22;1311;47.966;7.958;2023-07-31T10:11:37;22.50;75.70
2603;DHT22;1311;47.966;7.958;2023-07-31T10:14:05;22.60;99.90
2603;DHT22;1311;47.966;7.958;2023-07-31T10:16:38;22.50;57.10
2603;DHT22;1311;47.966;7.958;2023-07-31T10:19:06;22.60;99.90
2603;DHT22;1311;47.966;7.958;2023-07-31T10:21:34;22.70;99.90
2603;DHT22;1311;47.966;7.958;2023-07-31T10:24:04;22.70;99.90
2603;DHT22;1311;47.966;7.958;2023-07-31T10:26:32;22.70;99.90
2603;DHT22;1311;47.966;7.958;2023-07-31T10:28:59;22.40;86.80
2603;DHT22;1311;47.966;7.958;2023-07-31T10:31:28;22.40;99.90
2603;DHT22;1311;47.966;7.958;2023-07-31T10:33:58;22.40;59.70
2603;DHT22;1311;47.966;7.958;2023-07-31T10:36:26;22.70;99.90
2603;DHT22;1311;47.966;7.958;2023-07-31T10:38:52;22.70;99.90
2603;DHT22;1311;47.966;7.958;2023-07-31T10:41:28;22.80;85.70
2603;DHT22;1311;47.966;7.958;2023-07-31T10:43:57;23.00;16.50
2603;DHT22;1311;47.966;7.958;2023-07-31T10:46:24;23.10;38.80
2603;DHT22;1311;47.966;7.958;2023-07-31T10:48:59;23.40;86.80
2603;DHT22;1311;47.966;7.958;2023-07-31T10:51:33;23.60;91.60
2603;DHT22;1311;47.966;7.958;2023-07-31T10:54:13;23.70;1.00
2603;DHT22;1311;47.966;7.958;2023-07-31T10:56:44;23.70;1.00
2603;DHT22;1311;47.966;7.958;2023-07-31T10:59:11;23.60;1.00
2603;DHT22;1311;47.966;7.958;2023-07-31T11:01:50;23.70;1.00
2603;DHT22;1311;47.966;7.958;2023-07-31T11:04:23;23.90;1.00
2603;DHT22;1311;47.966;7.958;2023-07-31T11:06:58;24.30;1.00
2603;DHT22;1311;47.966;7.958;2023-07-31T11:09:28;24.20;1.00
2603;DHT22;1311;47.966;7.958;2023-07-31T11:11:56;24.50;1.00
2603;DHT22;1311;47.966;7.958;2023-07-31T11:14:23;24.40;1.00
2603;DHT22;1311;47.966;7.958;2023-07-31T11:16:50;24.20;1.00
2603;DHT22;1311;47.966;7.958;2023-07-31T11:19:23;24.40;1.00
2603;DHT22;1311;47.966;7.958;2023-07-31T11:21:51;24.50;1.00
2603;DHT22;1311;47.966;7.958;2023-07-31T11:24:21;24.60;1.00
2603;DHT22;1311;47.966;7.958;2023-07-31T11:26:49;24.30;1.00
2603;DHT22;1311;47.966;7.958;2023-07-31T11:29:16;24.40;1.00
2603;DHT22;1311;47.966;7.958;2023-07-31T11:31:44;24.60;1.00
2603;DHT22;1311;47.966;7.958;2023-07-31T11:34:12;24.90;1.00
2603;DHT22;1311;47.966;7.958;2023-07-31T11:36:40;24.80;1.00
2603;DHT22;1311;47.966;7.958;2023-07-31T11:39:08;24.70;1.00
2603;DHT22;1311;47.966;7.958;2023-07-31T11:41:35;24.60;1.00
2603;DHT22;1311;47.966;7.958;2023-07-31T11:44:02;24.50;99.90
2603;DHT22;1311;47.966;7.958;2023-07-31T11:46:30;24.30;1.00
2603;DHT22;1311;47.966;7.958;2023-07-31T11:48:59;24.60;1.00
2603;DHT22;1311;47.966;7.958;2023-07-31T11:51:27;24.60;99.90
2603;DHT22;1311;47.966;7.958;2023-07-31T11:53:58;24.40;99.90
2603;DHT22;1311;47.966;7.958;2023-07-31T11:56:27;24.30;99.90
2603;DHT22;1311;47.966;7.958;2023-07-31T11:58:57;24.70;99.90
2603;DHT22;1311;47.966;7.958;2023-07-31T12:01:26;24.40;99.90
2603;DHT22;1311;47.966;7.958;2023-07-31T12:03:54;24.70;1.00
2603;DHT22;1311;47.966;7.958;2023-07-31T12:06:32;24.50;99.90
2603;DHT22;1311;47.966;7.958;2023-07-31T12:09:03;24.90;99.90
2603;DHT22;1311;47.966;7.958;2023-07-31T12:11:30;24.90;99.90
2603;DHT22;1311;47.966;7.958;2023-07-31T12:13:57;24.60;99.90
2603;DHT22;1311;47.966;7.958;2023-07-31T12:16:26;24.70;1.00
2603;DHT22;1311;47.966;7.958;2023-07-31T12:18:54;24.50;99.90
2603;DHT22;1311;47.966;7.958;2023-07-31T12:21:21;24.50;99.90
2603;DHT22;1311;47.966;7.958;2023-07-31T12:23:48;24.70;99.90
2603;DHT22;1311;47.966;7.958;2023-07-31T12:26:17;24.70;99.90
2603;DHT22;1311;47.966;7.958;2023-07-31T12:28:45;24.90;99.90
2603;DHT22;1311;47.966;7.958;2023-07-31T12:31:14;24.90;99.90
2603;DHT22;1311;47.966;7.958;2023-07-31T12:33:43;24.60;99.90
2603;DHT22;1311;47.966;7.958;2023-07-31T12:36:11;24.50;99.90
2603;DHT22;1311;47.966;7.958;2023-07-31T12:38:38;24.40;99.90
2603;DHT22;1311;47.966;7.958;2023-07-31T12:41:05;24.40;99.90
2603;DHT22;1311;47.966;7.958;2023-07-31T12:43:34;24.40;99.90
2603;DHT22;1311;47.966;7.958;2023-07-31T12:46:01;24.50;99.90
2603;DHT22;1311;47.966;7.958;2023-07-31T12:48:28;24.60;99.90
2603;DHT22;1311;47.966;7.958;2023-07-31T12:50:55;24.80;99.90
2603;DHT22;1311;47.966;7.958;2023-07-31T12:53:22;24.80;99.90
2603;DHT22;1311;47.966;7.958;2023-07-31T12:55:49;24.90;99.90
2603;DHT22;1311;47.966;7.958;2023-07-31T12:58:16;24.90;99.90
2603;DHT22;1311;47.966;7.958;2023-07-31T13:00:44;25.00;99.90
2603;DHT22;1311;47.966;7.958;2023-07-31T13:03:16;25.40;99.90
2603;DHT22;1311;47.966;7.958;2023-07-31T13:05:43;25.70;99.90
2603;DHT22;1311;47.966;7.958;2023-07-31T13:08:10;26.00;99.90
2603;DHT22;1311;47.966;7.958;2023-07-31T13:10:37;26.30;99.90
2603;DHT22;1311;47.966;7.958;2023-07-31T13:13:04;26.40;99.90
2603;DHT22;1311;47.966;7.958;2023-07-31T13:15:31;26.00;99.90
2603;DHT22;1311;47.966;7.958;2023-07-31T13:17:59;26.00;99.90
2603;DHT22;1311;47.966;7.958;2023-07-31T13:20:26;26.50;99.90
2603;DHT22;1311;47.966;7.958;2023-07-31T13:22:53;26.60;99.90
2603;DHT22;1311;47.966;7.958;2023-07-31T13:25:20;26.60;99.90
2603;DHT22;1311;47.966;7.958;2023-07-31T13:27:47;26.90;99.90
2603;DHT22;1311;47.966;7.958;2023-07-31T13:30:14;26.70;99.90
2603;DHT22;1311;47.966;7.958;2023-07-31T13:32:41;26.90;99.90
2603;DHT22;1311;47.966;7.958;2023-07-31T13:35:09;26.80;96.40
2603;DHT22;1311;47.966;7.958;2023-07-31T13:37:37;26.60;78.60
2603;DHT22;1311;47.966;7.958;2023-07-31T13:40:05;26.90;91.90
2603;DHT22;1311;47.966;7.958;2023-07-31T13:42:32;27.10;33.50
2603;DHT22;1311;47.966;7.958;2023-07-31T13:44:59;27.20;1.00
2603;DHT22;1311;47.966;7.958;2023-07-31T13:47:26;26.40;1.00
2603;DHT22;1311;47.966;7.958;2023-07-31T13:49:53;26.30;1.00
2603;DHT22;1311;47.966;7.958;2023-07-31T13:52:21;26.60;16.10
2603;DHT22;1311;47.966;7.958;2023-07-31T13:54:48;26.50;1.00
2603;DHT22;1311;47.966;7.958;2023-07-31T13:57:14;26.70;1.00
2603;DHT22;1311;47.966;7.958;2023-07-31T13:59:42;27.20;17.20
2603;DHT22;1311;47.966;7.958;2023-07-31T14:02:09;27.50;1.00
2603;DHT22;1311;47.966;7.958;2023-07-31T14:04:36;27.20;1.00
2603;DHT22;1311;47.966;7.958;2023-07-31T14:07:03;27.70;1.00
2603;DHT22;1311;47.966;7.958;2023-07-31T14:09:31;27.90;1.00
2603;DHT22;1311;47.966;7.958;2023-07-31T14:11:58;27.90;1.00
2603;DHT22;1311;47.966;7.958;2023-07-31T14:14:25;27.50;1.00
2603;DHT22;1311;47.966;7.958;2023-07-31T14:16:52;27.90;1.00
2603;DHT22;1311;47.966;7.958;2023-07-31T14:19:19;27.90;1.00
2603;DHT22;1311;47.966;7.958;2023-07-31T14:21:46;27.60;1.00
2603;DHT22;1311;47.966;7.958;2023-07-31T14:24:13;27.50;1.00
2603;DHT22;1311;47.966;7.958;2023-07-31T14:26:41;27.60;1.00
2603;DHT22;1311;47.966;7.958;2023-07-31T14:29:08;27.70;1.00
2603;DHT22;1311;47.966;7.958;2023-07-31T14:31:35;27.10;1.00
2603;DHT22;1311;47.966;7.958;2023-07-31T14:34:02;27.00;1.00
2603;DHT22;1311;47.966;7.958;2023-07-31T14:36:29;27.20;1.00
2603;DHT22;1311;47.966;7.958;2023-07-31T14:38:56;27.00;1.00
2603;DHT22;1311;47.966;7.958;2023-07-31T14:41:23;27.20;1.00
2603;DHT22;1311;47.966;7.958;2023-07-31T14:43:51;27.30;1.00
2603;DHT22;1311;47.966;7.958;2023-07-31T14:46:18;27.30;1.00
2603;DHT22;1311;47.966;7.958;2023-07-31T14:48:45;27.60;1.00
2603;DHT22;1311;47.966;7.958;2023-07-31T14:51:12;27.70;1.00
2603;DHT22;1311;47.966;7.958;2023-07-31T14:53:39;27.70;1.00
2603;DHT22;1311;47.966;7.958;2023-07-31T14:56:06;27.90;1.00
2603;DHT22;1311;47.966;7.958;2023-07-31T14:58:33;27.60;1.00
2603;DHT22;1311;47.966;7.958;2023-07-31T15:01:01;27.80;1.00
2603;DHT22;1311;47.966;7.958;2023-07-31T15:03:28;28.00;1.00
2603;DHT22;1311;47.966;7.958;2023-07-31T15:05:55;27.80;1.00
2603;DHT22;1311;47.966;7.958;2023-07-31T15:08:21;27.80;1.00
2603;DHT22;1311;47.966;7.958;2023-07-31T15:10:49;27.60;1.00
2603;DHT22;1311;47.966;7.958;2023-07-31T15:13:16;27.80;1.00
2603;DHT22;1311;47.966;7.958;2023-07-31T15:15:43;28.00;1.00
2603;DHT22;1311;47.966;7.958;2023-07-31T15:18:11;27.80;1.00
2603;DHT22;1311;47.966;7.958;2023-07-31T15:20:37;27.80;1.00
2603;DHT22;1311;47.966;7.958;2023-07-31T15:23:04;27.60;1.00
2603;DHT22;1311;47.966;7.958;2023-07-31T15:25:31;27.50;1.00
2603;DHT22;1311;47.966;7.958;2023-07-31T15:27:58;27.40;1.00
2603;DHT22;1311;47.966;7.958;2023-07-31T15:30:24;27.30;1.00
2603;DHT22;1311;47.966;7.958;2023-07-31T15:32:51;27.00;1.00
2603;DHT22;1311;47.966;7.958;2023-07-31T15:35:20;26.80;1.00
2603;DHT22;1311;47.966;7.958;2023-07-31T15:37:47;26.90;1.00
2603;DHT22;1311;47.966;7.958;2023-07-31T15:40:13;26.90;1.00
2603;DHT22;1311;47.966;7.958;2023-07-31T15:42:40;26.80;1.00
2603;DHT22;1311;47.966;7.958;2023-07-31T15:45:08;26.90;1.00
2603;DHT22;1311;47.966;7.958;2023-07-31T15:47:35;27.00;1.00
2603;DHT22;1311;47.966;7.958;2023-07-31T15:50:03;27.00;1.00
2603;DHT22;1311;47.966;7.958;2023-07-31T15:52:31;26.90;1.00
2603;DHT22;1311;47.966;7.958;2023-07-31T15:54:58;26.70;1.00
2603;DHT22;1311;47.966;7.958;2023-07-31T15:57:25;26.50;1.00
2603;DHT22;1311;47.966;7.958;2023-07-31T15:59:51;26.50;1.00
2603;DHT22;1311;47.966;7.958;2023-07-31T16:02:18;26.40;1.00
2603;DHT22;1311;47.966;7.958;2023-07-31T16:04:45;26.20;1.00
2603;DHT22;1311;47.966;7.958;2023-07-31T16:07:12;26.40;1.00